Hauptseite
METAR-TAF:

METAR-TAF

Flughäfen :

Bad Vöslau, Österreich

Flugplatz Vöslau-Kottingbrunn

Breite: 47-57-52N, Länge: 016-15-34E, Höhe: 233 m

Beobachtung

Neuester Wetterbericht von vor 57 Minuten, um 16:00 UTC
Wind 18 kt aus Nordost
Temperatur 10°C
Luftfeuchtigkeit 29%
Luftdruck

METAR: LOAV 261600Z 04018KT 40KM FEW045CU 10/M07

Zeit: 18:57 (16:57 UTC)

Prognose

Neuester Wetterbericht von vor 5 Stunden und 32 Minuten, um 11:25 UTC
Gültige Prognose vom 26 um 12 UTC bis 26 um 21 UTC
Wind 10 kt aus Nord/Nordost
Sichtweite 10 km oder mehr
Leicht bewölkt in der Höhe von 4000 ft
Zeitweise
vom 26 um 12 UTC bis 26 um 17 UTC
Wind 20 kt aus Nord/Nordost

TAF: LOAV 261125Z 2612/2621 03010KT 9999 FEW040 TEMPO 2612/2617 02020KT

Wetterbeobachtungen und Prognosen von mehr als 4000 Flughäfen (METAR und TAF Bericht).

Die verfügbaren Stationen werden durch gelbe und rote Markierungen auf der Karte dargestellt.

Führen Sie die Maus auf sie, um den Namen der Station zu sehen.

Darauf klicken, um die Beobachtung von Wetterbeobachtungen und Prognosen zu sehen.

Um die Karte zu ändern : klicken Sie auf den grünen Tasten mit einem schwarzen Kreuz Zum Vergrößern, auf den grünen Button mit einem Gedankenstrich zu verkleinern, oder auf die grünen Pfeile für benachbarte Karten.


METAR-TAF: